Time;durP1;ratioP1;P1;durP2;ratioP2;P2;SDS_P1;SDS_P2;PMS_P1;PMS_P2;Temp;Humidity;BMP_temperature;BMP_pressure;BME280_temperature;BME280_humidity;BME280_pressure;Samples;Min_cycle;Max_cycle;Signal;HPM_P1;HPM_P2
2023/12/23 00:00:25;;;;;;;4.47;4.18;;;;;;;;;;1037970;28;20091;-77
2023/12/23 00:00:56;;;;;;;3.58;3.25;;;;;;;;;;1040591;28;20448;-77
2023/12/23 00:01:26;;;;;;;8.15;4.40;;;;;;;;;;1040984;28;20048;-77
2023/12/23 00:01:57;;;;;;;4.55;4.15;;;;;;;;;;1040932;28;20025;-76
2023/12/23 00:02:27;;;;;;;6.38;5.82;;;;;;;;;;1037262;28;20026;-77
2023/12/23 00:02:58;;;;;;;4.32;4.03;;;;;;;;;;1039743;28;20538;-77
2023/12/23 00:03:28;;;;;;;18.08;3.10;;;;;;;;;;1036805;28;20030;-76
2023/12/23 00:04:00;;;;;;;3.15;2.92;;;;;;;;;;1035116;28;20013;-76
2023/12/23 00:04:30;;;;;;;3.33;3.03;;;;;;;;;;1037087;28;20578;-77
2023/12/23 00:05:01;;;;;;;3.28;3.05;;;;;;;;;;1037275;28;20087;-77
2023/12/23 00:05:31;;;;;;;7.63;2.83;;;;;;;;;;1040784;28;20029;-77
2023/12/23 00:06:02;;;;;;;4.45;4.05;;;;;;;;;;1040876;28;20413;-77
2023/12/23 00:06:32;;;;;;;4.03;3.75;;;;;;;;;;1041607;28;20108;-77
2023/12/23 00:07:03;;;;;;;3.08;2.88;;;;;;;;;;1041477;28;20465;-77
2023/12/23 00:07:33;;;;;;;5.38;4.63;;;;;;;;;;1040853;28;20017;-77
2023/12/23 00:08:03;;;;;;;8.55;4.32;;;;;;;;;;1038795;28;20029;-77
2023/12/23 00:08:34;;;;;;;5.50;5.13;;;;;;;;;;1034999;28;20025;-77
2023/12/23 00:09:04;;;;;;;2.65;2.45;;;;;;;;;;1034716;28;20029;-77
2023/12/23 00:09:35;;;;;;;5.70;5.20;;;;;;;;;;1037436;28;20021;-77
2023/12/23 00:10:06;;;;;;;7.63;3.85;;;;;;;;;;1036093;28;20033;-77
2023/12/23 00:10:36;;;;;;;12.18;3.63;;;;;;;;;;1040957;28;20233;-77
2023/12/23 00:11:06;;;;;;;6.13;5.50;;;;;;;;;;1036540;28;20028;-76
2023/12/23 00:11:37;;;;;;;20.63;4.32;;;;;;;;;;1036735;28;20132;-76
2023/12/23 00:12:11;;;;;;;7.53;5.05;;;;;;;;;;1037025;28;20033;-76
2023/12/23 00:12:41;;;;;;;10.77;5.85;;;;;;;;;;1032968;28;20022;-77
2023/12/23 00:13:12;;;;;;;6.07;4.45;;;;;;;;;;1032591;28;20026;-77
2023/12/23 00:13:42;;;;;;;2.53;2.22;;;;;;;;;;1031639;28;20026;-77
2023/12/23 00:14:13;;;;;;;5.32;2.33;;;;;;;;;;1028689;28;20503;-77
2023/12/23 00:14:43;;;;;;;6.80;5.28;;;;;;;;;;1031605;28;20030;-77
2023/12/23 00:15:13;;;;;;;14.82;6.32;;;;;;;;;;1031552;28;20033;-76
2023/12/23 00:15:44;;;;;;;2.30;2.10;;;;;;;;;;1036689;28;20026;-77
2023/12/23 00:16:14;;;;;;;8.05;6.68;;;;;;;;;;1035715;28;20032;-77
2023/12/23 00:16:45;;;;;;;2.00;1.88;;;;;;;;;;1035560;28;20021;-76
2023/12/23 00:17:15;;;;;;;2.88;2.65;;;;;;;;;;1039810;28;20054;-76
2023/12/23 00:17:46;;;;;;;6.38;5.78;;;;;;;;;;1037470;28;20013;-76
2023/12/23 00:18:16;;;;;;;7.78;4.32;;;;;;;;;;1040515;28;20028;-76
2023/12/23 00:18:46;;;;;;;12.00;5.03;;;;;;;;;;1039614;28;20050;-77
2023/12/23 00:19:17;;;;;;;6.20;2.80;;;;;;;;;;1040155;28;20116;-76
2023/12/23 00:19:47;;;;;;;2.50;2.30;;;;;;;;;;1041445;28;20031;-77
2023/12/23 00:20:18;;;;;;;5.30;4.47;;;;;;;;;;1039405;28;20029;-77
2023/12/23 00:20:48;;;;;;;3.38;3.10;;;;;;;;;;1035237;28;20029;-76
2023/12/23 00:21:19;;;;;;;4.38;3.72;;;;;;;;;;1036427;28;20021;-77
2023/12/23 00:21:49;;;;;;;4.57;4.18;;;;;;;;;;1037601;28;20017;-77
2023/12/23 00:22:19;;;;;;;14.70;2.83;;;;;;;;;;1036822;28;20018;-77
2023/12/23 00:22:50;;;;;;;3.45;3.13;;;;;;;;;;1041061;28;20518;-77
2023/12/23 00:23:20;;;;;;;10.05;4.28;;;;;;;;;;1040849;28;20021;-77
2023/12/23 00:23:51;;;;;;;15.20;6.15;;;;;;;;;;1037537;28;20112;-77
2023/12/23 00:24:24;;;;;;;4.15;3.42;;;;;;;;;;1040584;28;20034;-77
2023/12/23 00:24:54;;;;;;;22.92;9.43;;;;;;;;;;1039411;28;20151;-76
2023/12/23 00:25:25;;;;;;;5.45;4.68;;;;;;;;;;1040298;28;20044;-77
2023/12/23 00:25:55;;;;;;;4.82;3.88;;;;;;;;;;1040407;28;20384;-77
2023/12/23 00:26:26;;;;;;;14.95;6.57;;;;;;;;;;1040814;28;20017;-76
2023/12/23 00:26:57;;;;;;;5.35;4.03;;;;;;;;;;1040946;28;20171;-76
2023/12/23 00:27:27;;;;;;;4.15;3.78;;;;;;;;;;1036831;28;20423;-76
2023/12/23 00:27:58;;;;;;;8.80;5.13;;;;;;;;;;1032982;28;20030;-76
2023/12/23 00:28:28;;;;;;;3.47;3.20;;;;;;;;;;1036949;28;20018;-76
2023/12/23 00:28:59;;;;;;;3.75;2.75;;;;;;;;;;1031943;28;20069;-75
2023/12/23 00:29:29;;;;;;;6.25;3.13;;;;;;;;;;1036293;28;20039;-76
2023/12/23 00:29:59;;;;;;;3.28;3.10;;;;;;;;;;1040871;28;20111;-77
2023/12/23 00:30:30;;;;;;;2.00;1.90;;;;;;;;;;1036878;28;20030;-76
2023/12/23 00:31:00;;;;;;;7.85;4.35;;;;;;;;;;1042698;28;20048;-77
2023/12/23 00:31:31;;;;;;;13.30;6.20;;;;;;;;;;1038372;28;20525;-77
2023/12/23 00:32:01;;;;;;;5.53;4.28;;;;;;;;;;1038122;28;20048;-75
2023/12/23 00:32:32;;;;;;;7.80;4.03;;;;;;;;;;1041140;28;20124;-77
2023/12/23 00:33:05;;;;;;;15.90;5.88;;;;;;;;;;1035167;28;20124;-76
2023/12/23 00:33:35;;;;;;;3.97;3.58;;;;;;;;;;1038335;28;20029;-76
2023/12/23 00:34:06;;;;;;;2.55;2.13;;;;;;;;;;1042070;28;20049;-76
2023/12/23 00:34:36;;;;;;;30.75;5.30;;;;;;;;;;1040951;28;20033;-76
2023/12/23 00:35:07;;;;;;;2.92;2.72;;;;;;;;;;1041813;28;20381;-76
2023/12/23 00:35:38;;;;;;;6.80;4.38;;;;;;;;;;1040635;28;20544;-77
2023/12/23 00:36:08;;;;;;;4.35;4.03;;;;;;;;;;1039011;28;20029;-76
2023/12/23 00:36:39;;;;;;;6.15;4.13;;;;;;;;;;1038989;28;20026;-77
2023/12/23 00:37:09;;;;;;;8.82;4.38;;;;;;;;;;1040882;28;20044;-77
2023/12/23 00:37:39;;;;;;;6.40;3.28;;;;;;;;;;1041863;28;20056;-77
2023/12/23 00:38:10;;;;;;;4.88;4.50;;;;;;;;;;1040239;28;20059;-77
2023/12/23 00:38:40;;;;;;;5.32;2.20;;;;;;;;;;1036686;28;20029;-77
2023/12/23 00:39:11;;;;;;;6.85;5.47;;;;;;;;;;1032729;28;20600;-77
2023/12/23 00:39:42;;;;;;;7.20;6.50;;;;;;;;;;1030963;28;20028;-77
2023/12/23 00:40:13;;;;;;;19.15;12.70;;;;;;;;;;1029104;28;20026;-77
2023/12/23 00:40:43;;;;;;;21.25;12.48;;;;;;;;;;1030946;28;20483;-77
2023/12/23 00:41:13;;;;;;;29.08;11.43;;;;;;;;;;1035247;28;20022;-77
2023/12/23 00:41:44;;;;;;;33.60;15.27;;;;;;;;;;1038295;28;20033;-77
2023/12/23 00:42:14;;;;;;;15.10;11.68;;;;;;;;;;1038927;28;20474;-77
2023/12/23 00:42:45;;;;;;;18.02;11.68;;;;;;;;;;1037548;28;20445;-77
2023/12/23 00:43:15;;;;;;;22.17;12.68;;;;;;;;;;1035712;28;20088;-77
2023/12/23 00:43:46;;;;;;;23.70;11.05;;;;;;;;;;1032159;28;20027;-77
2023/12/23 00:44:16;;;;;;;30.55;12.32;;;;;;;;;;1035468;28;20099;-77
2023/12/23 00:44:47;;;;;;;16.98;8.65;;;;;;;;;;1041416;28;20034;-77
2023/12/23 00:45:17;;;;;;;10.93;7.30;;;;;;;;;;1041489;28;20068;-77
2023/12/23 00:45:48;;;;;;;7.78;4.40;;;;;;;;;;1041943;28;20136;-77
2023/12/23 00:46:20;;;;;;;27.92;8.57;;;;;;;;;;1039950;28;20023;-77
2023/12/23 00:46:50;;;;;;;8.05;5.88;;;;;;;;;;1039176;28;20025;-77
2023/12/23 00:47:21;;;;;;;7.50;5.57;;;;;;;;;;1036218;28;20030;-76
2023/12/23 00:47:51;;;;;;;16.23;10.32;;;;;;;;;;1036935;28;20029;-77
2023/12/23 00:48:22;;;;;;;23.85;10.40;;;;;;;;;;1041641;28;20026;-77
2023/12/23 00:48:52;;;;;;;26.45;12.23;;;;;;;;;;1041453;28;20105;-77
2023/12/23 00:49:23;;;;;;;21.85;12.88;;;;;;;;;;1041923;28;20067;-77
2023/12/23 00:49:53;;;;;;;27.58;13.75;;;;;;;;;;1042012;28;20033;-77
2023/12/23 00:50:24;;;;;;;35.70;13.15;;;;;;;;;;1041952;28;20026;-77
2023/12/23 00:50:55;;;;;;;20.08;8.30;;;;;;;;;;1042357;28;20025;-77
2023/12/23 00:51:25;;;;;;;21.02;10.07;;;;;;;;;;1041101;28;20017;-77
2023/12/23 00:51:56;;;;;;;7.43;6.22;;;;;;;;;;1037516;28;20467;-77
2023/12/23 00:52:28;;;;;;;13.98;7.38;;;;;;;;;;1031761;28;20080;-77
2023/12/23 00:53:01;;;;;;;25.65;12.77;;;;;;;;;;1033109;28;20080;-77
2023/12/23 00:53:32;;;;;;;30.48;14.88;;;;;;;;;;1037620;28;20049;-77
2023/12/23 00:54:02;;;;;;;38.17;15.70;;;;;;;;;;1041724;28;20020;-77
2023/12/23 00:54:32;;;;;;;28.80;15.55;;;;;;;;;;1042140;28;20393;-77
2023/12/23 00:55:03;;;;;;;15.52;11.75;;;;;;;;;;1042323;28;20031;-77
2023/12/23 00:55:33;;;;;;;36.03;13.52;;;;;;;;;;1041109;28;20044;-77
2023/12/23 00:56:04;;;;;;;32.50;12.68;;;;;;;;;;1041056;28;20033;-77
2023/12/23 00:56:35;;;;;;;21.90;11.82;;;;;;;;;;1042140;28;20025;-77
2023/12/23 00:57:05;;;;;;;23.92;8.13;;;;;;;;;;1041980;28;20037;-77
2023/12/23 00:57:36;;;;;;;19.30;7.30;;;;;;;;;;1037411;28;20029;-77
2023/12/23 00:58:06;;;;;;;8.07;6.50;;;;;;;;;;1038323;28;20105;-77
2023/12/23 00:58:37;;;;;;;8.20;6.90;;;;;;;;;;1041530;28;20039;-77
2023/12/23 00:59:07;;;;;;;13.27;8.13;;;;;;;;;;1037524;28;20021;-77
2023/12/23 00:59:38;;;;;;;5.68;5.03;;;;;;;;;;1041528;28;20028;-77
2023/12/23 01:00:08;;;;;;;15.32;8.70;;;;;;;;;;1037094;28;20021;-77
2023/12/23 01:00:39;;;;;;;26.60;7.07;;;;;;;;;;1036737;28;20044;-77
2023/12/23 01:01:09;;;;;;;30.67;11.48;;;;;;;;;;1041574;28;20112;-77
2023/12/23 01:01:42;;;;;;;14.82;8.40;;;;;;;;;;1041435;28;20036;-77
2023/12/23 01:02:12;;;;;;;16.20;7.93;;;;;;;;;;1041209;28;20032;-77
2023/12/23 01:02:43;;;;;;;19.67;9.75;;;;;;;;;;1041467;28;20055;-77
2023/12/23 01:03:13;;;;;;;16.40;10.07;;;;;;;;;;1041265;28;20155;-77
2023/12/23 01:03:43;;;;;;;11.70;7.57;;;;;;;;;;1041405;28;20025;-77
2023/12/23 01:04:14;;;;;;;3.05;2.88;;;;;;;;;;1041959;28;20025;-77
2023/12/23 01:04:44;;;;;;;8.73;5.70;;;;;;;;;;1040199;28;20036;-77
2023/12/23 01:05:15;;;;;;;5.18;4.35;;;;;;;;;;1041562;28;20071;-77
2023/12/23 01:05:45;;;;;;;9.02;6.30;;;;;;;;;;1040054;28;20068;-77
2023/12/23 01:06:16;;;;;;;12.05;6.10;;;;;;;;;;1041248;28;20028;-77
2023/12/23 01:06:46;;;;;;;8.18;7.30;;;;;;;;;;1044131;28;20028;-77
2023/12/23 01:07:16;;;;;;;14.70;7.03;;;;;;;;;;1042897;28;20094;-77
2023/12/23 01:07:47;;;;;;;6.97;4.25;;;;;;;;;;1042239;28;20032;-77
2023/12/23 01:08:17;;;;;;;8.80;6.07;;;;;;;;;;1042317;28;20017;-77
2023/12/23 01:08:48;;;;;;;7.43;5.53;;;;;;;;;;1041434;28;20029;-77
2023/12/23 01:09:18;;;;;;;9.13;5.93;;;;;;;;;;1041411;28;20526;-77
2023/12/23 01:09:49;;;;;;;12.20;7.65;;;;;;;;;;1041466;28;20071;-77
2023/12/23 01:10:22;;;;;;;17.90;10.57;;;;;;;;;;1036215;28;20124;-77
2023/12/23 01:10:52;;;;;;;14.23;11.02;;;;;;;;;;1041388;28;20030;-77
2023/12/23 01:11:22;;;;;;;13.95;7.20;;;;;;;;;;1039744;28;20022;-76
2023/12/23 01:11:53;;;;;;;10.60;8.00;;;;;;;;;;1039945;28;20030;-76
2023/12/23 01:12:23;;;;;;;9.95;5.85;;;;;;;;;;1042268;28;20025;-77
2023/12/23 01:12:54;;;;;;;8.10;3.92;;;;;;;;;;1041219;28;20032;-77
2023/12/23 01:13:24;;;;;;;4.55;4.15;;;;;;;;;;1042212;28;20071;-77
2023/12/23 01:13:55;;;;;;;7.15;4.57;;;;;;;;;;1041393;28;20083;-77
2023/12/23 01:14:25;;;;;;;7.97;2.38;;;;;;;;;;1040919;28;20037;-76
2023/12/23 01:14:55;;;;;;;5.07;1.83;;;;;;;;;;1041826;28;20057;-77
2023/12/23 01:15:26;;;;;;;8.82;3.38;;;;;;;;;;1042167;28;20081;-77
2023/12/23 01:15:56;;;;;;;6.05;3.30;;;;;;;;;;1040162;28;20024;-77
2023/12/23 01:16:27;;;;;;;2.42;2.25;;;;;;;;;;1042434;28;20071;-77
2023/12/23 01:16:57;;;;;;;6.40;4.00;;;;;;;;;;1040067;28;20030;-77
2023/12/23 01:17:28;;;;;;;8.20;4.30;;;;;;;;;;1041577;28;20575;-77
2023/12/23 01:17:58;;;;;;;4.38;4.07;;;;;;;;;;1041246;28;20026;-77
2023/12/23 01:18:29;;;;;;;4.30;1.98;;;;;;;;;;1042172;28;20059;-77
2023/12/23 01:18:59;;;;;;;2.72;2.50;;;;;;;;;;1042004;28;20501;-76
2023/12/23 01:19:30;;;;;;;3.80;3.50;;;;;;;;;;1041331;28;20102;-76
2023/12/23 01:20:00;;;;;;;1.90;1.77;;;;;;;;;;1037233;28;20104;-76
2023/12/23 01:20:31;;;;;;;13.73;4.93;;;;;;;;;;1033089;28;20018;-76
2023/12/23 01:21:01;;;;;;;4.38;4.07;;;;;;;;;;1031860;28;20054;-76
2023/12/23 01:21:32;;;;;;;4.40;3.97;;;;;;;;;;1037226;28;20014;-76
2023/12/23 01:22:02;;;;;;;7.78;3.30;;;;;;;;;;1041494;28;20025;-77
2023/12/23 01:22:33;;;;;;;3.38;2.92;;;;;;;;;;1041120;28;20029;-76
2023/12/23 01:23:03;;;;;;;7.95;5.72;;;;;;;;;;1041979;28;20080;-77
2023/12/23 01:23:33;;;;;;;2.42;1.98;;;;;;;;;;1040914;28;20025;-76
2023/12/23 01:24:04;;;;;;;3.15;2.92;;;;;;;;;;1041070;28;20028;-76
2023/12/23 01:24:35;;;;;;;5.32;4.82;;;;;;;;;;1041046;28;20067;-76
2023/12/23 01:25:05;;;;;;;5.40;4.95;;;;;;;;;;1040562;28;20067;-75
2023/12/23 01:25:35;;;;;;;2.75;2.55;;;;;;;;;;1039875;28;20918;-75
2023/12/23 01:26:06;;;;;;;10.13;4.43;;;;;;;;;;1039449;28;20021;-75
2023/12/23 01:26:36;;;;;;;5.07;4.60;;;;;;;;;;1037131;28;20047;-76
2023/12/23 01:27:07;;;;;;;5.00;3.03;;;;;;;;;;1040476;28;20055;-76
2023/12/23 01:27:37;;;;;;;14.77;6.00;;;;;;;;;;1041345;28;20066;-76
2023/12/23 01:28:08;;;;;;;19.00;4.22;;;;;;;;;;1041281;28;20029;-77
2023/12/23 01:28:38;;;;;;;3.00;2.78;;;;;;;;;;1041360;28;20029;-77
2023/12/23 01:29:08;;;;;;;28.60;4.00;;;;;;;;;;1040134;28;20022;-76
2023/12/23 01:29:39;;;;;;;11.40;5.07;;;;;;;;;;1038905;28;20084;-77
2023/12/23 01:30:09;;;;;;;6.47;4.90;;;;;;;;;;1040659;28;20048;-77
2023/12/23 01:30:40;;;;;;;14.30;5.63;;;;;;;;;;1039788;28;20079;-77
2023/12/23 01:31:10;;;;;;;4.55;3.88;;;;;;;;;;1042529;28;20372;-77
2023/12/23 01:31:41;;;;;;;5.25;3.03;;;;;;;;;;1038669;28;20120;-77
2023/12/23 01:32:11;;;;;;;4.25;3.92;;;;;;;;;;1037742;28;20017;-77
2023/12/23 01:32:42;;;;;;;6.22;2.30;;;;;;;;;;1038087;28;20048;-77
2023/12/23 01:33:12;;;;;;;11.35;4.38;;;;;;;;;;1039395;28;20025;-77
2023/12/23 01:33:42;;;;;;;4.93;4.40;;;;;;;;;;1040291;28;20063;-77
2023/12/23 01:34:13;;;;;;;13.25;7.22;;;;;;;;;;1039382;28;20021;-77
2023/12/23 01:34:43;;;;;;;9.27;3.97;;;;;;;;;;1040226;28;20087;-76
2023/12/23 01:35:14;;;;;;;3.25;2.55;;;;;;;;;;1039608;28;20017;-75
2023/12/23 01:35:44;;;;;;;2.08;1.98;;;;;;;;;;1041639;28;20028;-76
2023/12/23 01:36:15;;;;;;;2.75;2.58;;;;;;;;;;1040401;28;20021;-76
2023/12/23 01:36:45;;;;;;;6.32;3.40;;;;;;;;;;1041582;28;20083;-76
2023/12/23 01:37:16;;;;;;;6.95;2.42;;;;;;;;;;1036291;28;20032;-74
2023/12/23 01:37:46;;;;;;;12.00;2.83;;;;;;;;;;1035357;28;20602;-75
2023/12/23 01:38:17;;;;;;;3.90;3.53;;;;;;;;;;1036742;28;20026;-75
2023/12/23 01:38:47;;;;;;;4.22;3.08;;;;;;;;;;1040644;28;20032;-75
2023/12/23 01:39:18;;;;;;;5.15;3.78;;;;;;;;;;1040153;28;20040;-76
2023/12/23 01:39:48;;;;;;;8.48;5.00;;;;;;;;;;1040642;28;20020;-76
2023/12/23 01:40:19;;;;;;;6.05;4.82;;;;;;;;;;1041094;28;20432;-75
2023/12/23 01:40:49;;;;;;;7.15;6.15;;;;;;;;;;1040988;28;20459;-76
2023/12/23 01:41:20;;;;;;;4.40;4.10;;;;;;;;;;1040117;28;20017;-76
2023/12/23 01:41:50;;;;;;;7.03;6.32;;;;;;;;;;1039298;28;20106;-76
2023/12/23 01:42:21;;;;;;;6.85;2.58;;;;;;;;;;1040014;28;20029;-76
2023/12/23 01:42:51;;;;;;;6.07;4.35;;;;;;;;;;1034607;28;20097;-75
2023/12/23 01:43:21;;;;;;;1.38;1.27;;;;;;;;;;1039549;28;20104;-76
2023/12/23 01:43:52;;;;;;;4.85;4.25;;;;;;;;;;1039872;28;20019;-76
2023/12/23 01:44:22;;;;;;;2.80;2.60;;;;;;;;;;1040981;28;20033;-77
2023/12/23 01:44:53;;;;;;;6.78;3.25;;;;;;;;;;1038574;28;20033;-77
2023/12/23 01:45:23;;;;;;;1.60;1.50;;;;;;;;;;1038185;28;20041;-77
2023/12/23 01:45:56;;;;;;;2.58;2.38;;;;;;;;;;1036110;28;20717;-77
2023/12/23 01:46:27;;;;;;;3.65;3.42;;;;;;;;;;1035287;28;20025;-77
2023/12/23 01:46:58;;;;;;;3.70;3.40;;;;;;;;;;1035380;28;20248;-77
2023/12/23 01:47:29;;;;;;;6.00;5.05;;;;;;;;;;1035301;28;20072;-77
2023/12/23 01:48:01;;;;;;;8.43;5.10;;;;;;;;;;1035819;28;20032;-77
2023/12/23 01:48:32;;;;;;;5.22;4.10;;;;;;;;;;1034537;28;20115;-75
2023/12/23 01:49:04;;;;;;;6.53;4.90;;;;;;;;;;1037020;28;20051;-76
2023/12/23 01:49:34;;;;;;;3.47;3.17;;;;;;;;;;1038433;28;20032;-78
2023/12/23 01:50:06;;;;;;;8.43;6.28;;;;;;;;;;1041063;28;20060;-77
2023/12/23 01:50:37;;;;;;;11.15;3.65;;;;;;;;;;1040953;28;20028;-76
2023/12/23 01:51:10;;;;;;;11.13;5.88;;;;;;;;;;1040520;28;20035;-76
2023/12/23 01:51:40;;;;;;;5.88;2.22;;;;;;;;;;1036894;28;20033;-74
2023/12/23 01:52:11;;;;;;;3.53;2.42;;;;;;;;;;1037218;28;20052;-74
2023/12/23 01:52:41;;;;;;;7.22;5.03;;;;;;;;;;1039223;28;20026;-76
2023/12/23 01:53:12;;;;;;;19.90;6.57;;;;;;;;;;1039032;28;20017;-75
2023/12/23 01:53:42;;;;;;;2.63;2.42;;;;;;;;;;1040215;28;20496;-76
2023/12/23 01:54:13;;;;;;;9.40;4.88;;;;;;;;;;1041287;28;20025;-76
2023/12/23 01:54:44;;;;;;;3.17;2.88;;;;;;;;;;1038596;28;20028;-76
2023/12/23 01:55:15;;;;;;;4.28;3.83;;;;;;;;;;1038399;28;20030;-76
2023/12/23 01:55:45;;;;;;;4.50;2.55;;;;;;;;;;1039024;28;20064;-76
2023/12/23 01:56:16;;;;;;;5.22;4.72;;;;;;;;;;1035245;28;20123;-76
2023/12/23 01:56:47;;;;;;;3.28;2.97;;;;;;;;;;1039624;28;20017;-74
2023/12/23 01:57:18;;;;;;;7.32;4.05;;;;;;;;;;1040723;28;20517;-75
2023/12/23 01:57:48;;;;;;;15.80;4.60;;;;;;;;;;1033736;28;20022;-76
2023/12/23 01:58:20;;;;;;;2.72;2.53;;;;;;;;;;1037429;28;20052;-76
2023/12/23 01:58:50;;;;;;;6.28;4.45;;;;;;;;;;1035521;28;20458;-76
2023/12/23 01:59:21;;;;;;;6.07;5.47;;;;;;;;;;1036342;28;20021;-76
2023/12/23 01:59:52;;;;;;;9.20;5.47;;;;;;;;;;1035464;28;20037;-75
2023/12/23 02:00:23;;;;;;;6.07;3.30;;;;;;;;;;1032847;28;20484;-75
2023/12/23 02:00:53;;;;;;;3.88;3.47;;;;;;;;;;1035355;28;20022;-76
2023/12/23 02:01:24;;;;;;;3.35;3.10;;;;;;;;;;1035138;28;20108;-76
2023/12/23 02:01:57;;;;;;;8.02;6.30;;;;;;;;;;1038704;28;20030;-76
2023/12/23 02:02:28;;;;;;;4.40;3.47;;;;;;;;;;1038870;28;20021;-76
2023/12/23 02:02:59;;;;;;;11.40;6.93;;;;;;;;;;1035847;28;20026;-76
2023/12/23 02:03:31;;;;;;;6.53;5.03;;;;;;;;;;1038494;28;20033;-76
2023/12/23 02:04:02;;;;;;;12.68;6.18;;;;;;;;;;1036604;28;20041;-76
2023/12/23 02:04:33;;;;;;;7.28;4.20;;;;;;;;;;1039503;28;20063;-76
2023/12/23 02:05:07;;;;;;;11.65;4.13;;;;;;;;;;1036363;28;20025;-76
2023/12/23 02:05:37;;;;;;;11.73;3.63;;;;;;;;;;1037634;28;20040;-76
2023/12/23 02:06:08;;;;;;;6.88;3.50;;;;;;;;;;1039698;28;20021;-74
2023/12/23 02:06:39;;;;;;;43.55;6.70;;;;;;;;;;1039446;28;20441;-75
2023/12/23 02:07:09;;;;;;;8.88;4.38;;;;;;;;;;1040865;28;20124;-75
2023/12/23 02:07:42;;;;;;;8.63;4.85;;;;;;;;;;1039693;28;20025;-74
2023/12/23 02:08:13;;;;;;;5.90;3.53;;;;;;;;;;1037786;28;20129;-76
2023/12/23 02:08:43;;;;;;;2.60;2.40;;;;;;;;;;1034344;28;20033;-75
2023/12/23 02:09:14;;;;;;;11.90;5.25;;;;;;;;;;1030063;28;20470;-75
2023/12/23 02:09:44;;;;;;;5.35;3.72;;;;;;;;;;1036572;28;20021;-75
2023/12/23 02:10:15;;;;;;;6.68;5.35;;;;;;;;;;1036399;28;20444;-75
2023/12/23 02:10:49;;;;;;;24.08;7.10;;;;;;;;;;1034991;28;20025;-75
2023/12/23 02:11:38;;;;;;;10.75;4.28;;;;;;;;;;1040389;28;20060;-78
2023/12/23 02:12:19;;;;;;;7.30;5.85;;;;;;;;;;1039650;28;20026;-75
2023/12/23 02:13:02;;;;;;;5.63;3.90;;;;;;;;;;1038515;28;20028;-75
2023/12/23 02:13:41;;;;;;;8.75;4.30;;;;;;;;;;1034235;28;20457;-76
2023/12/23 02:14:21;;;;;;;6.22;5.70;;;;;;;;;;1036609;28;20022;-75
2023/12/23 02:15:03;;;;;;;16.73;4.78;;;;;;;;;;1039473;28;20604;-77
2023/12/23 02:15:36;;;;;;;11.25;6.70;;;;;;;;;;1042442;28;20416;-77
2023/12/23 02:16:07;;;;;;;9.02;6.15;;;;;;;;;;1043542;28;20065;-77
2023/12/23 02:16:38;;;;;;;3.00;2.78;;;;;;;;;;1042776;28;20017;-77
2023/12/23 02:17:09;;;;;;;5.50;4.85;;;;;;;;;;1041767;28;20028;-77
2023/12/23 02:17:40;;;;;;;3.45;3.15;;;;;;;;;;1039449;28;20497;-77
2023/12/23 02:18:11;;;;;;;2.45;2.25;;;;;;;;;;1039168;28;20025;-77
2023/12/23 02:18:41;;;;;;;15.75;7.00;;;;;;;;;;1035512;28;20546;-77
2023/12/23 02:19:14;;;;;;;5.95;5.30;;;;;;;;;;1034638;28;20064;-77
2023/12/23 02:19:45;;;;;;;9.35;5.32;;;;;;;;;;1037949;28;20025;-77
2023/12/23 02:20:15;;;;;;;19.98;6.90;;;;;;;;;;1036610;28;20486;-76
2023/12/23 02:20:49;;;;;;;40.10;8.30;;;;;;;;;;1035297;28;20494;-76
2023/12/23 02:21:19;;;;;;;6.03;5.05;;;;;;;;;;1037536;28;20022;-76
2023/12/23 02:21:50;;;;;;;11.70;5.22;;;;;;;;;;1037304;28;20516;-76
2023/12/23 02:22:20;;;;;;;11.30;8.27;;;;;;;;;;1034995;28;20604;-76
2023/12/23 02:22:51;;;;;;;9.85;6.35;;;;;;;;;;1037353;28;20466;-77
2023/12/23 02:23:21;;;;;;;7.65;6.68;;;;;;;;;;1038046;28;20033;-76
2023/12/23 02:23:52;;;;;;;12.90;5.13;;;;;;;;;;1037620;28;20138;-76
2023/12/23 02:24:22;;;;;;;5.97;4.32;;;;;;;;;;1042070;28;20033;-76
2023/12/23 02:24:53;;;;;;;7.15;5.80;;;;;;;;;;1038663;28;20101;-76
2023/12/23 02:25:26;;;;;;;7.40;4.47;;;;;;;;;;1042028;28;20115;-77
2023/12/23 02:26:01;;;;;;;6.32;5.25;;;;;;;;;;1034108;28;20093;-76
2023/12/23 02:26:33;;;;;;;10.15;5.55;;;;;;;;;;1036133;28;20037;-77
2023/12/23 02:27:07;;;;;;;11.38;8.45;;;;;;;;;;1039237;28;20441;-76
2023/12/23 02:27:44;;;;;;;6.63;5.25;;;;;;;;;;1035679;28;20161;-76
2023/12/23 02:28:16;;;;;;;5.47;4.45;;;;;;;;;;1035306;28;20018;-77
2023/12/23 02:28:51;;;;;;;14.48;8.48;;;;;;;;;;1035451;28;20026;-77
2023/12/23 02:29:22;;;;;;;26.05;7.68;;;;;;;;;;1036488;28;20057;-76
2023/12/23 02:29:53;;;;;;;13.27;5.75;;;;;;;;;;1031331;28;20092;-77
2023/12/23 02:30:24;;;;;;;13.27;7.18;;;;;;;;;;1032693;28;20561;-77
2023/12/23 02:30:56;;;;;;;11.07;7.43;;;;;;;;;;1035432;28;20394;-77
2023/12/23 02:31:27;;;;;;;12.88;7.18;;;;;;;;;;1039460;28;20124;-77
2023/12/23 02:31:57;;;;;;;7.18;5.55;;;;;;;;;;1041275;28;20476;-77
2023/12/23 02:32:29;;;;;;;11.95;4.72;;;;;;;;;;1039797;28;20488;-77
2023/12/23 02:33:00;;;;;;;9.77;6.18;;;;;;;;;;1040320;28;20041;-77
2023/12/23 02:33:30;;;;;;;5.07;4.38;;;;;;;;;;1041819;28;20024;-77
2023/12/23 02:34:01;;;;;;;3.00;2.60;;;;;;;;;;1040735;28;20029;-77
2023/12/23 02:34:32;;;;;;;21.75;7.07;;;;;;;;;;1038750;28;20077;-77
2023/12/23 02:35:03;;;;;;;10.90;4.40;;;;;;;;;;1038179;28;20021;-77
2023/12/23 02:35:34;;;;;;;8.57;5.65;;;;;;;;;;1038920;28;20483;-77
2023/12/23 02:36:06;;;;;;;12.30;6.63;;;;;;;;;;1040324;28;20067;-77
2023/12/23 02:36:38;;;;;;;8.52;4.68;;;;;;;;;;1041401;28;20025;-76
2023/12/23 02:37:08;;;;;;;11.25;5.32;;;;;;;;;;1039524;28;20029;-76
2023/12/23 02:37:40;;;;;;;15.23;4.50;;;;;;;;;;1039237;28;20401;-77
2023/12/23 02:38:12;;;;;;;8.45;4.78;;;;;;;;;;1033818;28;20061;-77
2023/12/23 02:38:43;;;;;;;9.63;6.38;;;;;;;;;;1033967;28;20018;-77
2023/12/23 02:39:14;;;;;;;20.95;7.43;;;;;;;;;;1031991;28;20053;-77
2023/12/23 02:39:44;;;;;;;6.22;5.10;;;;;;;;;;1033820;28;20521;-76
2023/12/23 02:40:14;;;;;;;15.20;7.32;;;;;;;;;;1037103;28;20017;-77
2023/12/23 02:40:45;;;;;;;9.50;6.55;;;;;;;;;;1038709;28;20485;-77
2023/12/23 02:41:15;;;;;;;8.90;6.28;;;;;;;;;;1039392;28;20017;-77
2023/12/23 02:41:46;;;;;;;5.85;5.15;;;;;;;;;;1034681;28;20027;-77
2023/12/23 02:42:16;;;;;;;8.75;5.65;;;;;;;;;;1029178;28;20506;-77
2023/12/23 02:42:47;;;;;;;10.60;6.82;;;;;;;;;;1026979;28;20053;-77
2023/12/23 02:43:18;;;;;;;17.92;7.85;;;;;;;;;;1030131;28;20017;-78
2023/12/23 02:43:49;;;;;;;12.95;4.63;;;;;;;;;;1030701;28;20070;-78
2023/12/23 02:44:20;;;;;;;20.85;8.45;;;;;;;;;;1031290;28;20528;-78
2023/12/23 02:44:50;;;;;;;11.80;3.78;;;;;;;;;;1037835;28;20447;-77
2023/12/23 02:45:20;;;;;;;6.13;5.63;;;;;;;;;;1035384;28;20021;-76
2023/12/23 02:45:51;;;;;;;7.05;5.85;;;;;;;;;;1039732;28;20027;-76
2023/12/23 02:46:21;;;;;;;6.60;5.63;;;;;;;;;;1038482;28;20026;-78
2023/12/23 02:46:52;;;;;;;7.25;4.53;;;;;;;;;;1034298;28;20551;-77
2023/12/23 02:47:25;;;;;;;12.98;7.40;;;;;;;;;;1033946;28;20457;-79
2023/12/23 02:47:56;;;;;;;13.75;6.03;;;;;;;;;;1037361;28;20021;-77
2023/12/23 02:48:26;;;;;;;9.45;4.88;;;;;;;;;;1034118;28;20018;-77
2023/12/23 02:48:57;;;;;;;10.65;9.30;;;;;;;;;;1038352;28;20044;-77
2023/12/23 02:49:27;;;;;;;16.33;8.20;;;;;;;;;;1040666;28;20098;-77
2023/12/23 02:49:58;;;;;;;9.60;6.57;;;;;;;;;;1034857;28;20045;-77
2023/12/23 02:50:28;;;;;;;12.38;5.50;;;;;;;;;;1040103;28;20389;-76
2023/12/23 02:50:59;;;;;;;11.52;6.85;;;;;;;;;;1032991;28;20026;-79
2023/12/23 02:51:29;;;;;;;5.72;5.20;;;;;;;;;;1030272;28;20129;-76
2023/12/23 02:52:00;;;;;;;6.80;6.15;;;;;;;;;;1031847;28;20018;-76
2023/12/23 02:52:30;;;;;;;40.53;7.75;;;;;;;;;;1032584;28;20096;-78
2023/12/23 02:53:07;;;;;;;5.90;4.07;;;;;;;;;;1034004;28;20469;-76
2023/12/23 02:53:38;;;;;;;7.78;5.20;;;;;;;;;;1037316;28;20449;-76
2023/12/23 02:54:08;;;;;;;8.13;5.03;;;;;;;;;;1039183;28;20139;-75
2023/12/23 02:54:39;;;;;;;13.60;4.50;;;;;;;;;;1038128;28;20103;-75
2023/12/23 02:55:09;;;;;;;12.45;7.45;;;;;;;;;;1035730;28;20566;-77
2023/12/23 02:55:40;;;;;;;10.90;8.45;;;;;;;;;;1039578;28;20040;-76
2023/12/23 02:56:10;;;;;;;11.18;6.30;;;;;;;;;;1038239;28;20022;-77
2023/12/23 02:56:41;;;;;;;5.15;4.38;;;;;;;;;;1034434;28;20534;-76
2023/12/23 02:57:11;;;;;;;14.27;7.75;;;;;;;;;;1037661;28;20031;-76
2023/12/23 02:57:42;;;;;;;14.20;7.50;;;;;;;;;;1038198;28;20022;-75
2023/12/23 02:58:12;;;;;;;3.20;2.90;;;;;;;;;;1041917;28;20074;-75
2023/12/23 02:58:43;;;;;;;4.80;3.90;;;;;;;;;;1043803;28;20078;-76
2023/12/23 02:59:13;;;;;;;16.35;6.50;;;;;;;;;;1040349;28;20120;-75
2023/12/23 02:59:44;;;;;;;14.93;5.30;;;;;;;;;;1041304;28;20048;-75
2023/12/23 03:00:14;;;;;;;14.38;6.13;;;;;;;;;;1038400;28;20891;-76
2023/12/23 03:00:45;;;;;;;4.25;3.85;;;;;;;;;;1038624;28;20136;-75
2023/12/23 03:01:19;;;;;;;4.68;4.35;;;;;;;;;;1038215;28;20107;-77
2023/12/23 03:01:49;;;;;;;21.42;8.55;;;;;;;;;;1035652;28;20114;-78
2023/12/23 03:02:23;;;;;;;12.70;7.50;;;;;;;;;;1036524;28;20044;-77
2023/12/23 03:02:53;;;;;;;3.55;3.25;;;;;;;;;;1039481;28;20090;-75
2023/12/23 03:03:30;;;;;;;8.88;6.70;;;;;;;;;;1033242;28;20466;-75
2023/12/23 03:04:08;;;;;;;4.28;3.63;;;;;;;;;;1034119;28;20536;-77
2023/12/23 03:04:39;;;;;;;5.93;4.32;;;;;;;;;;1034167;28;20025;-75
2023/12/23 03:05:10;;;;;;;1.88;1.77;;;;;;;;;;1037713;28;20029;-76